Time;durP1;ratioP1;P1;durP2;ratioP2;P2;SDS_P1;SDS_P2;PMS_P1;PMS_P2;Temp;Humidity;BMP_temperature;BMP_pressure;BME280_temperature;BME280_humidity;BME280_pressure;Samples;Min_cycle;Max_cycle;Signal;HPM_P1;HPM_P2
2022/08/15 00:01:54;;;;;;;4.90;3.08;;;23.00;98.60;;;;;;5068788;28;20075;-73
2022/08/15 00:04:21;;;;;;;3.90;2.70;;;23.00;98.60;;;;;;5053503;28;20154;-73
2022/08/15 00:06:49;;;;;;;4.28;2.90;;;23.00;98.60;;;;;;5069967;28;20051;-72
2022/08/15 00:09:22;;;;;;;4.63;3.15;;;23.00;98.50;;;;;;5070536;28;20048;-73
2022/08/15 00:11:53;;;;;;;4.38;3.20;;;23.00;98.60;;;;;;5067508;28;20328;-72
2022/08/15 00:14:26;;;;;;;4.80;3.13;;;23.00;98.70;;;;;;5069312;28;20052;-74
2022/08/15 00:16:53;;;;;;;3.72;2.45;;;23.00;98.70;;;;;;5053493;28;20091;-72
2022/08/15 00:19:25;;;;;;;4.72;2.80;;;23.00;98.70;;;;;;5068531;28;20045;-72
2022/08/15 00:21:58;;;;;;;3.92;2.63;;;22.90;98.70;;;;;;5070025;28;20132;-73
2022/08/15 00:24:30;;;;;;;3.90;2.47;;;22.90;98.70;;;;;;5068482;28;20179;-74
2022/08/15 00:27:00;;;;;;;4.40;3.35;;;22.90;98.80;;;;;;5064130;28;20049;-72
2022/08/15 00:29:31;;;;;;;4.53;2.70;;;22.90;98.80;;;;;;5033348;28;20475;-73
2022/08/15 00:32:00;;;;;;;4.10;2.90;;;22.90;98.80;;;;;;5113314;27;20122;-73
2022/08/15 00:34:28;;;;;;;3.90;3.03;;;22.90;98.90;;;;;;5106175;28;20054;-73
2022/08/15 00:36:55;;;;;;;4.72;3.08;;;22.90;98.90;;;;;;5089433;28;20052;-72
2022/08/15 00:39:25;;;;;;;4.05;2.95;;;22.90;98.90;;;;;;5072584;28;20146;-71
2022/08/15 00:41:53;;;;;;;3.97;2.83;;;22.90;99.00;;;;;;5124264;27;20040;-72
2022/08/15 00:44:20;;;;;;;4.65;2.72;;;22.90;99.00;;;;;;5071706;28;20551;-73
2022/08/15 00:46:53;;;;;;;5.05;3.00;;;22.90;99.00;;;;;;5087998;28;20054;-74
2022/08/15 00:49:23;;;;;;;5.05;3.42;;;22.80;99.10;;;;;;5104707;28;20040;-73
2022/08/15 00:52:05;;;;;;;5.82;3.15;;;22.80;99.10;;;;;;5087875;28;20074;-72
2022/08/15 00:54:38;;;;;;;4.95;3.90;;;22.70;99.20;;;;;;5089238;28;20051;-72
2022/08/15 00:57:11;;;;;;;6.18;3.20;;;22.70;99.20;;;;;;5089244;28;20040;-72
2022/08/15 00:59:47;;;;;;;4.68;2.95;;;22.70;99.20;;;;;;5089018;28;20093;-72
2022/08/15 01:02:19;;;;;;;5.03;2.97;;;22.70;99.30;;;;;;5089495;28;20042;-72
2022/08/15 01:04:47;;;;;;;4.25;2.75;;;22.70;99.30;;;;;;5072864;28;20105;-72
2022/08/15 01:07:15;;;;;;;5.18;2.85;;;22.70;99.30;;;;;;5089064;28;20058;-72
2022/08/15 01:09:43;;;;;;;5.38;3.88;;;22.60;99.40;;;;;;5072257;28;20170;-72
2022/08/15 01:12:16;;;;;;;4.20;3.20;;;22.60;99.30;;;;;;5055901;28;20078;-73
2022/08/15 01:14:53;;;;;;;4.40;3.35;;;22.60;99.30;;;;;;5078189;28;20084;-72
2022/08/15 01:17:26;;;;;;;5.22;3.88;;;22.60;99.40;;;;;;5032457;28;20057;-73
2022/08/15 01:20:03;;;;;;;5.40;3.42;;;22.60;99.30;;;;;;5048962;28;20060;-73
2022/08/15 01:22:43;;;;;;;6.13;4.18;;;22.60;99.40;;;;;;5049056;28;20056;-72
2022/08/15 01:25:17;;;;;;;5.22;3.42;;;22.50;99.40;;;;;;5082062;28;20434;-73
2022/08/15 01:28:05;;;;;;;5.68;3.65;;;22.50;99.40;;;;;;5048405;28;20063;-72
2022/08/15 01:30:39;;;;;;;5.50;3.70;;;22.50;99.50;;;;;;5064763;28;20446;-71
2022/08/15 01:33:07;;;;;;;6.15;3.47;;;22.50;99.50;;;;;;5031872;28;20048;-72
2022/08/15 01:35:36;;;;;;;5.32;3.72;;;22.50;99.50;;;;;;5048938;28;20056;-72
2022/08/15 01:38:12;;;;;;;7.38;3.30;;;22.40;99.60;;;;;;5048654;28;20499;-72
2022/08/15 01:41:33;;;;;;;6.10;3.97;;;22.40;99.70;;;;;;5064255;28;20098;-73
2022/08/15 01:44:08;;;;;;;6.07;3.65;;;22.40;99.70;;;;;;5073821;28;20492;-72
2022/08/15 01:46:41;;;;;;;7.20;4.00;;;22.40;99.70;;;;;;5048641;28;20033;-73
2022/08/15 01:49:20;;;;;;;6.55;3.83;;;22.40;99.80;;;;;;5048229;28;20049;-73
2022/08/15 01:51:49;;;;;;;6.82;4.03;;;22.40;99.80;;;;;;5048356;28;20574;-73
2022/08/15 01:54:19;;;;;;;5.68;3.67;;;22.40;99.70;;;;;;5081493;28;20135;-73
2022/08/15 01:56:47;;;;;;;9.55;3.95;;;22.30;99.80;;;;;;5048459;28;20052;-72
2022/08/15 01:59:22;;;;;;;4.50;3.30;;;22.30;99.80;;;;;;5048198;28;20056;-72
2022/08/15 02:01:57;;;;;;;8.25;3.85;;;22.30;99.90;;;;;;5031707;28;20511;-72
2022/08/15 02:04:39;;;;;;;5.97;3.58;;;22.30;99.90;;;;;;5031795;28;20048;-72
2022/08/15 02:07:18;;;;;;;5.22;3.70;;;22.20;99.90;;;;;;5047761;28;20052;-72
2022/08/15 02:09:49;;;;;;;5.32;3.67;;;22.30;99.90;;;;;;5064980;28;20507;-72
2022/08/15 02:12:26;;;;;;;5.65;3.35;;;22.20;99.90;;;;;;5046786;28;20045;-72
2022/08/15 02:14:55;;;;;;;4.60;3.60;;;22.20;99.90;;;;;;5040092;28;20507;-73
2022/08/15 02:17:23;;;;;;;4.80;3.53;;;22.20;99.90;;;;;;5064206;28;20130;-72
2022/08/15 02:19:51;;;;;;;4.70;3.38;;;22.20;99.90;;;;;;5049393;28;20053;-73
2022/08/15 02:22:23;;;;;;;5.95;3.30;;;22.20;99.90;;;;;;5064390;28;20041;-72
2022/08/15 02:24:59;;;;;;;5.72;3.40;;;22.30;99.90;;;;;;5064567;28;20380;-72
2022/08/15 02:27:32;;;;;;;5.65;3.40;;;22.20;99.90;;;;;;5047647;28;20049;-73
2022/08/15 02:30:15;;;;;;;5.65;4.00;;;22.10;99.90;;;;;;5047890;28;20479;-73
2022/08/15 02:32:44;;;;;;;8.18;4.13;;;22.20;99.90;;;;;;5080808;28;20103;-72
2022/08/15 02:35:16;;;;;;;5.72;4.07;;;22.20;99.90;;;;;;5047662;28;20067;-72
2022/08/15 02:37:45;;;;;;;6.47;3.78;;;22.20;99.90;;;;;;5064453;28;20117;-72
2022/08/15 02:40:15;;;;;;;5.32;3.63;;;22.20;99.90;;;;;;5049167;28;20594;-72
2022/08/15 02:42:46;;;;;;;6.85;4.45;;;22.20;99.90;;;;;;5081300;28;20124;-72
2022/08/15 02:45:14;;;;;;;6.13;4.15;;;22.20;99.90;;;;;;5048881;28;20107;-73
2022/08/15 02:47:43;;;;;;;5.75;4.07;;;22.20;99.90;;;;;;5047845;28;20375;-72
2022/08/15 02:50:14;;;;;;;5.20;3.58;;;22.20;99.90;;;;;;5064508;28;20098;-72
2022/08/15 02:52:46;;;;;;;4.68;3.53;;;22.20;99.90;;;;;;5047632;28;20363;-72
2022/08/15 02:55:15;;;;;;;7.10;4.25;;;22.10;99.90;;;;;;5047738;28;20049;-72
2022/08/15 02:57:44;;;;;;;5.80;4.32;;;22.10;99.90;;;;;;5047557;28;20072;-72
2022/08/15 03:00:18;;;;;;;5.03;3.70;;;22.20;99.90;;;;;;5047578;28;20040;-72
2022/08/15 03:03:02;;;;;;;4.22;3.53;;;22.10;99.90;;;;;;5093147;28;20045;-72
2022/08/15 03:05:33;;;;;;;5.80;4.07;;;22.10;99.90;;;;;;5030982;28;20044;-72
2022/08/15 03:08:01;;;;;;;5.90;3.60;;;22.10;99.90;;;;;;5031057;28;20142;-72
2022/08/15 03:10:29;;;;;;;5.38;4.18;;;22.10;99.90;;;;;;5080962;28;20040;-73
2022/08/15 03:13:06;;;;;;;5.50;3.80;;;22.10;99.90;;;;;;5046568;28;20102;-72
2022/08/15 03:15:44;;;;;;;4.82;3.60;;;22.10;99.90;;;;;;5048128;28;20103;-72
2022/08/15 03:18:13;;;;;;;7.88;4.65;;;22.10;99.90;;;;;;5063819;28;20045;-72
2022/08/15 03:20:44;;;;;;;5.70;3.83;;;22.10;99.90;;;;;;5063806;28;20545;-72
2022/08/15 03:23:16;;;;;;;7.28;3.88;;;22.10;99.90;;;;;;5050062;28;20077;-72
2022/08/15 03:25:49;;;;;;;8.15;4.40;;;22.00;99.90;;;;;;5034410;28;20130;-72
2022/08/15 03:28:20;;;;;;;9.43;4.53;;;22.00;99.90;;;;;;5050906;28;20084;-72
2022/08/15 03:30:49;;;;;;;6.70;4.30;;;22.00;99.90;;;;;;5067834;28;20162;-72
2022/08/15 03:33:17;;;;;;;7.30;4.70;;;22.00;99.90;;;;;;5050642;28;20037;-72
2022/08/15 03:35:52;;;;;;;7.80;4.93;;;21.90;99.90;;;;;;5034692;28;20041;-72
2022/08/15 03:38:20;;;;;;;5.57;4.50;;;21.90;99.90;;;;;;5050888;28;20057;-72
2022/08/15 03:40:50;;;;;;;6.00;4.72;;;21.90;99.90;;;;;;5084365;28;20041;-73
2022/08/15 03:43:22;;;;;;;5.78;4.10;;;21.90;99.90;;;;;;5034240;28;20056;-72
2022/08/15 03:45:53;;;;;;;6.57;4.10;;;21.90;99.90;;;;;;5067689;28;20076;-73
2022/08/15 03:48:27;;;;;;;6.63;4.35;;;21.90;99.90;;;;;;5034313;28;20056;-72
2022/08/15 03:50:58;;;;;;;5.55;4.40;;;21.90;99.90;;;;;;5050473;28;20045;-72
2022/08/15 03:53:32;;;;;;;5.32;4.00;;;21.90;99.90;;;;;;5068004;28;20157;-72
2022/08/15 03:56:03;;;;;;;5.60;3.63;;;21.90;99.90;;;;;;5050841;28;20494;-72
2022/08/15 03:58:35;;;;;;;6.97;4.22;;;21.90;99.90;;;;;;5051494;28;20052;-73
2022/08/15 04:01:13;;;;;;;5.43;4.18;;;21.90;99.90;;;;;;5033464;28;20228;-73
2022/08/15 04:03:42;;;;;;;5.70;4.43;;;21.90;99.90;;;;;;5080185;28;20070;-72
2022/08/15 04:06:14;;;;;;;6.03;3.83;;;21.90;99.90;;;;;;5104200;28;20057;-73
2022/08/15 04:08:46;;;;;;;7.43;4.40;;;21.80;99.90;;;;;;5104276;28;20052;-72
2022/08/15 04:11:15;;;;;;;6.03;4.60;;;21.90;99.90;;;;;;5070646;28;20045;-72
2022/08/15 04:13:45;;;;;;;5.93;4.40;;;21.80;99.90;;;;;;5070229;28;20131;-72
2022/08/15 04:16:14;;;;;;;7.35;3.92;;;21.80;99.90;;;;;;5053939;28;20056;-72
2022/08/15 04:18:42;;;;;;;5.97;3.72;;;21.90;99.90;;;;;;5070254;28;20045;-72
2022/08/15 04:21:12;;;;;;;6.00;4.20;;;21.90;99.90;;;;;;5053726;28;20051;-72
2022/08/15 04:23:46;;;;;;;5.80;3.78;;;21.90;99.90;;;;;;5103988;28;20135;-72
2022/08/15 04:26:15;;;;;;;5.63;4.38;;;21.90;99.90;;;;;;5069981;28;20384;-72
2022/08/15 04:28:44;;;;;;;7.95;3.83;;;21.90;99.90;;;;;;5086429;28;20151;-72
2022/08/15 04:31:19;;;;;;;5.32;3.97;;;22.00;99.90;;;;;;5103154;28;20048;-73
2022/08/15 04:33:48;;;;;;;7.43;4.37;;;22.00;99.90;;;;;;5052717;28;20045;-72
2022/08/15 04:36:19;;;;;;;5.35;3.47;;;22.10;99.90;;;;;;5069916;28;20535;-72
2022/08/15 04:38:52;;;;;;;4.68;3.13;;;22.20;99.90;;;;;;5053448;28;20056;-72
2022/08/15 04:41:20;;;;;;;4.93;4.00;;;22.30;99.90;;;;;;5103493;28;20502;-72
2022/08/15 04:43:48;;;;;;;5.95;3.40;;;22.40;99.90;;;;;;5069941;28;20086;-72
2022/08/15 04:46:19;;;;;;;5.28;3.40;;;22.50;99.90;;;;;;5086866;28;20080;-72
2022/08/15 04:48:48;;;;;;;5.10;3.60;;;22.70;99.70;;;;;;5103388;28;20120;-72
2022/08/15 04:51:15;;;;;;;5.13;3.88;;;22.80;99.40;;;;;;5053002;28;20057;-72
2022/08/15 04:53:44;;;;;;;4.43;3.65;;;23.00;99.20;;;;;;5069093;28;20055;-72
2022/08/15 04:56:13;;;;;;;7.13;3.97;;;23.10;99.10;;;;;;5085842;28;20055;-73
2022/08/15 04:58:41;;;;;;;3.92;3.00;;;23.20;98.90;;;;;;5085874;28;20049;-72
2022/08/15 05:01:15;;;;;;;5.80;4.00;;;23.30;98.90;;;;;;5089417;28;20488;-72
2022/08/15 05:03:54;;;;;;;6.00;3.85;;;23.50;98.70;;;;;;5048680;28;20830;-72
2022/08/15 05:06:22;;;;;;;4.75;3.10;;;23.70;98.40;;;;;;5031733;28;20052;-72
2022/08/15 05:08:51;;;;;;;6.05;3.30;;;23.90;98.20;;;;;;5048091;28;20056;-72
2022/08/15 05:11:23;;;;;;;4.97;3.17;;;24.10;97.90;;;;;;5088567;28;20032;-71
2022/08/15 05:13:56;;;;;;;4.07;3.08;;;24.20;97.70;;;;;;5068254;28;20046;-72
2022/08/15 05:16:29;;;;;;;5.00;3.55;;;24.40;97.50;;;;;;5067884;28;20072;-72
2022/08/15 05:19:00;;;;;;;6.40;3.65;;;24.60;97.20;;;;;;5049198;28;20102;-72
2022/08/15 05:21:29;;;;;;;5.55;3.53;;;24.70;97.20;;;;;;5031153;28;20898;-74
2022/08/15 05:23:57;;;;;;;5.05;2.88;;;24.80;97.20;;;;;;5049405;28;20155;-72
2022/08/15 05:26:30;;;;;;;4.90;2.90;;;24.90;97.10;;;;;;5081965;28;20072;-72
2022/08/15 05:28:58;;;;;;;6.40;3.30;;;25.10;97.00;;;;;;5047315;28;20064;-74
2022/08/15 05:31:28;;;;;;;4.45;3.47;;;25.20;96.70;;;;;;5047873;28;20783;-72
2022/08/15 05:34:00;;;;;;;4.55;3.17;;;25.30;96.50;;;;;;5064497;28;20548;-72
2022/08/15 05:36:34;;;;;;;8.95;3.22;;;25.50;96.30;;;;;;5062290;28;20079;-72
2022/08/15 05:39:27;;;;;;;4.78;3.15;;;25.70;96.10;;;;;;5064467;28;20045;-73
2022/08/15 05:42:29;;;;;;;3.97;2.60;;;25.80;95.90;;;;;;5058635;28;20524;-72
2022/08/15 05:45:25;;;;;;;3.57;2.53;;;26.10;95.50;;;;;;5045488;28;20278;-72
2022/08/15 05:48:11;;;;;;;5.38;2.60;;;26.20;95.00;;;;;;5081615;28;20045;-74
2022/08/15 05:50:53;;;;;;;7.30;2.67;;;26.40;94.70;;;;;;5072105;28;20116;-73
2022/08/15 05:53:41;;;;;;;4.55;2.75;;;26.60;94.30;;;;;;5063707;28;20049;-70
2022/08/15 05:56:22;;;;;;;4.35;2.63;;;26.70;93.90;;;;;;5091895;28;20102;-70
2022/08/15 05:58:57;;;;;;;3.80;2.20;;;26.80;93.70;;;;;;5051678;28;20095;-70
2022/08/15 06:01:40;;;;;;;4.35;2.58;;;27.00;93.60;;;;;;5051557;28;20056;-74
2022/08/15 06:04:20;;;;;;;3.78;2.40;;;27.10;93.10;;;;;;5051288;28;20386;-71
2022/08/15 06:06:50;;;;;;;3.42;2.30;;;27.20;92.70;;;;;;5084805;28;20055;-72
2022/08/15 06:09:40;;;;;;;6.90;3.10;;;27.30;92.40;;;;;;5084276;28;20601;-71
2022/08/15 06:12:13;;;;;;;3.78;2.42;;;27.50;92.10;;;;;;5067747;28;20473;-72
2022/08/15 06:14:45;;;;;;;3.05;2.15;;;27.60;91.60;;;;;;5035159;28;20097;-71
2022/08/15 06:17:28;;;;;;;4.00;2.22;;;27.70;91.70;;;;;;5067809;28;20040;-71
2022/08/15 06:20:08;;;;;;;2.90;2.13;;;27.80;90.90;;;;;;5067663;28;20072;-72
2022/08/15 06:22:43;;;;;;;3.42;2.33;;;27.90;90.50;;;;;;5101588;28;20075;-71
2022/08/15 06:25:21;;;;;;;3.40;2.22;;;28.00;90.40;;;;;;5067673;28;20495;-71
2022/08/15 06:27:57;;;;;;;4.63;2.65;;;28.10;90.20;;;;;;5067571;28;20883;-72
2022/08/15 06:30:49;;;;;;;4.05;2.70;;;28.20;90.00;;;;;;5067718;28;20048;-71
2022/08/15 06:33:40;;;;;;;2.92;2.10;;;28.30;90.00;;;;;;5050917;28;20057;-71
2022/08/15 06:36:36;;;;;;;5.65;2.70;;;28.40;89.80;;;;;;5067734;28;20097;-71
2022/08/15 06:39:25;;;;;;;5.57;3.15;;;28.50;89.30;;;;;;5084544;28;20079;-71
2022/08/15 06:42:28;;;;;;;4.35;2.67;;;28.60;89.00;;;;;;5067547;28;20054;-72
2022/08/15 06:45:08;;;;;;;4.95;2.90;;;28.70;88.90;;;;;;5067496;28;20102;-71
2022/08/15 06:47:37;;;;;;;4.50;2.45;;;28.80;88.30;;;;;;5050222;28;20072;-73
2022/08/15 06:50:13;;;;;;;3.38;2.50;;;28.80;87.90;;;;;;5067192;28;20048;-71
2022/08/15 06:52:43;;;;;;;;;;;28.90;87.90;;;;;;5068238;28;20122;-71
2022/08/15 06:55:11;;;;;;;3.75;2.30;;;29.00;88.20;;;;;;5067136;28;19924;-72
2022/08/15 06:58:04;;;;;;;5.53;2.80;;;29.10;86.90;;;;;;5052817;28;20064;-71
2022/08/15 07:00:43;;;;;;;5.03;2.42;;;29.10;86.10;;;;;;5071400;28;20075;-72
2022/08/15 07:03:54;;;;;;;2.80;1.90;;;29.10;86.40;;;;;;5054574;28;20390;-72
2022/08/15 07:06:45;;;;;;;4.07;2.28;;;29.20;84.80;;;;;;5105093;28;20045;-72
2022/08/15 07:09:38;;;;;;;3.45;2.17;;;29.30;84.30;;;;;;5054636;28;20109;-71
2022/08/15 07:12:12;;;;;;;4.00;2.60;;;29.40;84.30;;;;;;5087870;28;20064;-72
2022/08/15 07:14:57;;;;;;;3.83;2.45;;;29.60;83.30;;;;;;5088028;28;20047;-71
2022/08/15 07:17:43;;;;;;;3.22;2.00;;;29.70;82.80;;;;;;5071293;28;20049;-72
2022/08/15 07:20:12;;;;;;;3.33;2.35;;;29.80;81.60;;;;;;5071152;28;20047;-71
2022/08/15 07:23:13;;;;;;;3.13;2.15;;;29.80;81.10;;;;;;5104736;28;20078;-71
2022/08/15 07:25:46;;;;;;;3.30;2.30;;;29.80;81.40;;;;;;5071171;28;20063;-71
2022/08/15 07:28:17;;;;;;;3.90;2.00;;;29.90;80.90;;;;;;5054153;28;20060;-71
2022/08/15 07:31:37;;;;;;;3.03;2.20;;;30.00;81.00;;;;;;5071045;28;20029;-70
2022/08/15 07:34:19;;;;;;;3.63;2.13;;;30.00;79.70;;;;;;5102637;27;20150;-70
2022/08/15 07:37:00;;;;;;;3.47;2.30;;;30.10;78.60;;;;;;5104720;28;20041;-71
2022/08/15 07:39:40;;;;;;;3.67;2.13;;;30.20;78.30;;;;;;5068687;28;20136;-71
2022/08/15 07:42:19;;;;;;;3.45;2.33;;;30.30;78.90;;;;;;5077042;28;20499;-71
2022/08/15 07:44:59;;;;;;;4.55;2.20;;;30.30;79.00;;;;;;5065484;28;20036;-71
2022/08/15 07:47:34;;;;;;;3.45;2.33;;;30.40;79.20;;;;;;5047382;28;20032;-71
2022/08/15 07:50:07;;;;;;;;;;;30.40;78.50;;;;;;5093960;28;20098;-72
2022/08/15 07:52:37;;;;;;;3.50;2.13;;;30.40;78.00;;;;;;5093016;28;19928;-71
2022/08/15 07:55:21;;;;;;;3.85;2.38;;;30.50;78.30;;;;;;5096277;28;20376;-70
2022/08/15 07:58:17;;;;;;;4.72;2.90;;;30.60;78.10;;;;;;5111060;27;20043;-71
2022/08/15 08:01:05;;;;;;;4.03;2.60;;;30.70;77.50;;;;;;5058650;28;20048;-70
2022/08/15 08:04:17;;;;;;;4.68;2.65;;;30.40;77.30;;;;;;5053660;28;20144;-70
2022/08/15 08:06:52;;;;;;;4.95;3.33;;;30.10;78.10;;;;;;5077027;28;20044;-70
2022/08/15 08:09:33;;;;;;;6.03;3.57;;;30.10;78.30;;;;;;5079884;28;20123;-72
2022/08/15 08:12:11;;;;;;;2.90;2.25;;;30.10;78.90;;;;;;5080640;28;20043;-71
2022/08/15 08:14:44;;;;;;;4.13;2.85;;;29.90;78.70;;;;;;5054802;28;20502;-71
2022/08/15 08:17:28;;;;;;;3.40;2.33;;;29.90;78.50;;;;;;5050925;28;20041;-72
2022/08/15 08:20:26;;;;;;;3.92;2.58;;;30.20;77.50;;;;;;5077523;28;20051;-71
2022/08/15 08:23:15;;;;;;;3.63;2.47;;;30.30;77.30;;;;;;5075698;28;20487;-71
2022/08/15 08:26:01;;;;;;;3.22;2.20;;;30.40;75.50;;;;;;5078748;28;20037;-71
2022/08/15 08:29:01;;;;;;;3.83;2.28;;;30.60;75.80;;;;;;5097597;27;20490;-73
2022/08/15 08:31:59;;;;;;;2.92;1.70;;;30.70;74.60;;;;;;5068197;28;20064;-71
2022/08/15 08:34:43;;;;;;;3.40;2.25;;;30.90;74.80;;;;;;5051515;28;20533;-70
2022/08/15 08:37:30;;;;;;;4.07;3.10;;;30.90;71.80;;;;;;5062417;28;20126;-71
2022/08/15 08:43:33;;;;;;;2.72;2.00;;;30.90;71.60;;;;;;5065109;28;20412;-71
2022/08/15 08:46:23;;;;;;;2.72;2.00;;;31.00;74.10;;;;;;5070775;28;20078;-71
2022/08/15 08:49:30;;;;;;;3.60;2.33;;;31.10;74.30;;;;;;5068600;28;20143;-71
2022/08/15 08:52:03;;;;;;;3.35;2.35;;;31.20;72.70;;;;;;5067030;28;20048;-72
2022/08/15 08:54:55;;;;;;;3.88;2.20;;;31.30;71.30;;;;;;5086598;28;20047;-71
2022/08/15 08:57:28;;;;;;;4.50;2.15;;;31.30;70.70;;;;;;5101615;27;20531;-72
2022/08/15 09:00:04;;;;;;;3.20;2.00;;;31.30;72.40;;;;;;5055795;28;20059;-72
2022/08/15 09:03:02;;;;;;;3.92;2.38;;;31.20;72.00;;;;;;5041574;28;20056;-71
2022/08/15 09:05:41;;;;;;;3.33;2.40;;;31.30;73.90;;;;;;5028915;28;20474;-71
2022/08/15 09:08:15;;;;;;;4.55;2.15;;;31.10;72.50;;;;;;5075322;28;20044;-72
2022/08/15 09:10:49;;;;;;;3.90;2.53;;;31.10;72.80;;;;;;5091685;28;20040;-71
2022/08/15 09:13:33;;;;;;;3.30;2.40;;;31.20;73.90;;;;;;5057975;28;20055;-70
2022/08/15 09:16:47;;;;;;;3.95;2.17;;;31.20;73.60;;;;;;5077489;28;20096;-71
2022/08/15 09:19:26;;;;;;;3.30;2.25;;;31.30;73.30;;;;;;5056447;28;20052;-71
2022/08/15 09:21:54;;;;;;;3.17;2.40;;;31.10;72.30;;;;;;5038108;28;20052;-71
2022/08/15 09:24:23;;;;;;;3.55;2.28;;;31.30;73.00;;;;;;5072542;28;20085;-73
2022/08/15 09:27:19;;;;;;;3.40;2.40;;;31.30;72.90;;;;;;5075151;28;20056;-74
2022/08/15 09:29:57;;;;;;;3.45;2.30;;;31.40;73.70;;;;;;5070255;28;20049;-72
2022/08/15 09:32:28;;;;;;;5.50;2.70;;;31.50;73.20;;;;;;5091565;28;20161;-71
2022/08/15 09:35:15;;;;;;;2.97;2.00;;;31.50;73.40;;;;;;5085725;28;20799;-71
2022/08/15 09:37:52;;;;;;;3.80;2.20;;;31.60;73.70;;;;;;5077963;27;20094;-72
2022/08/15 09:40:36;;;;;;;3.75;2.65;;;31.60;72.80;;;;;;5084215;28;20094;-70
2022/08/15 09:43:27;;;;;;;4.47;3.15;;;31.60;72.20;;;;;;5088984;28;20045;-74
2022/08/15 09:46:40;;;;;;;3.55;2.22;;;31.60;72.20;;;;;;5054287;28;20069;-71
2022/08/15 09:49:50;;;;;;;3.63;2.53;;;31.70;72.50;;;;;;5069946;28;20106;-71
2022/08/15 09:52:26;;;;;;;3.97;2.50;;;31.80;72.80;;;;;;5073797;28;20055;-71
2022/08/15 09:55:01;;;;;;;4.32;2.47;;;31.70;72.00;;;;;;5054974;28;20128;-70
2022/08/15 09:57:29;;;;;;;;;;;31.60;71.10;;;;;;5084182;28;20091;-71
2022/08/15 10:00:16;;;;;;;4.72;2.38;;;31.50;71.90;;;;;;5088662;28;19929;-71
2022/08/15 10:02:47;;;;;;;3.63;2.55;;;30.90;70.70;;;;;;5068327;28;20063;-71
2022/08/15 10:05:44;;;;;;;4.32;2.08;;;31.10;72.20;;;;;;5033972;28;20048;-72
2022/08/15 10:08:14;;;;;;;3.63;2.33;;;31.20;72.60;;;;;;5051202;28;20086;-71
2022/08/15 10:10:53;;;;;;;4.20;2.58;;;31.40;72.20;;;;;;5067354;28;20103;-71
2022/08/15 10:13:39;;;;;;;4.20;2.47;;;31.50;71.90;;;;;;5068579;28;20174;-71
2022/08/15 10:16:41;;;;;;;4.05;2.70;;;31.60;72.40;;;;;;5064103;28;20110;-71
2022/08/15 10:19:10;;;;;;;3.75;2.65;;;31.60;72.40;;;;;;5060940;28;20044;-72
2022/08/15 10:21:40;;;;;;;3.58;2.63;;;31.70;71.20;;;;;;5075267;28;20040;-71
2022/08/15 10:24:30;;;;;;;3.60;2.67;;;31.70;72.60;;;;;;5097144;28;20040;-70
2022/08/15 10:27:09;;;;;;;4.35;3.00;;;31.60;72.00;;;;;;5096151;28;20047;-71
2022/08/15 10:29:40;;;;;;;3.80;2.30;;;31.60;72.20;;;;;;5106592;27;20470;-72
2022/08/15 10:32:35;;;;;;;3.72;2.08;;;31.60;72.80;;;;;;5066115;28;20563;-71
2022/08/15 10:35:09;;;;;;;3.45;2.45;;;31.60;72.30;;;;;;5100663;28;20052;-72
2022/08/15 10:37:57;;;;;;;3.73;2.43;;;31.60;72.90;;;;;;5067113;28;20048;-71
2022/08/15 10:40:34;;;;;;;3.42;2.35;;;31.70;73.90;;;;;;5050237;28;20044;-71
2022/08/15 10:43:20;;;;;;;3.40;2.42;;;31.80;73.20;;;;;;5066299;28;20510;-72
2022/08/15 10:46:13;;;;;;;3.70;2.83;;;31.70;72.50;;;;;;5084417;28;20056;-71
2022/08/15 10:49:22;;;;;;;2.80;1.98;;;31.70;71.90;;;;;;5050886;28;20392;-71
2022/08/15 10:52:22;;;;;;;4.10;2.72;;;31.40;72.00;;;;;;5050275;28;20052;-71
2022/08/15 10:55:16;;;;;;;3.67;2.70;;;31.10;72.50;;;;;;5066182;28;20123;-71
2022/08/15 10:57:50;;;;;;;5.00;3.42;;;30.90;72.80;;;;;;5100559;28;20060;-72
2022/08/15 11:00:53;;;;;;;3.17;2.20;;;30.90;73.20;;;;;;5067380;28;20051;-73
2022/08/15 11:03:49;;;;;;;3.35;2.33;;;30.80;73.10;;;;;;5050622;28;20044;-71
2022/08/15 11:06:21;;;;;;;3.88;2.53;;;30.90;74.00;;;;;;5067302;28;20080;-74
2022/08/15 11:08:58;;;;;;;4.82;2.47;;;31.00;74.20;;;;;;5065485;28;20502;-71
2022/08/15 11:11:30;;;;;;;4.27;2.40;;;31.20;73.80;;;;;;5050088;28;20121;-71
2022/08/15 11:14:11;;;;;;;5.13;2.97;;;31.40;73.60;;;;;;5068632;28;20044;-70
2022/08/15 11:16:47;;;;;;;5.20;3.13;;;31.40;73.50;;;;;;5066879;28;20051;-71
2022/08/15 11:19:24;;;;;;;5.28;2.83;;;31.60;73.70;;;;;;5066979;28;20041;-71
2022/08/15 11:21:55;;;;;;;3.10;2.28;;;31.60;73.30;;;;;;5068393;28;20050;-71
2022/08/15 11:24:54;;;;;;;3.20;2.17;;;31.70;72.80;;;;;;5100545;28;20048;-71
2022/08/15 11:27:25;;;;;;;3.42;2.30;;;31.70;72.60;;;;;;5066669;28;20474;-71
2022/08/15 11:29:57;;;;;;;3.38;2.55;;;31.60;72.60;;;;;;5067100;28;20461;-71
2022/08/15 11:32:34;;;;;;;4.97;2.33;;;31.50;72.70;;;;;;5067130;28;20044;-71
2022/08/15 11:35:27;;;;;;;5.63;2.58;;;31.50;73.30;;;;;;5083458;28;20474;-72
2022/08/15 11:37:58;;;;;;;3.50;2.53;;;31.60;72.80;;;;;;5066812;28;20076;-71
2022/08/15 11:40:32;;;;;;;7.30;3.28;;;31.60;73.00;;;;;;5066976;28;20479;-71
2022/08/15 11:43:02;;;;;;;5.75;2.60;;;31.40;72.50;;;;;;5067853;28;20041;-71
2022/08/15 11:45:34;;;;;;;3.65;2.90;;;31.10;75.70;;;;;;5087443;28;20068;-71
2022/08/15 11:48:11;;;;;;;3.63;2.70;;;31.00;79.00;;;;;;5104729;28;20048;-71
2022/08/15 11:50:54;;;;;;;3.55;2.40;;;30.80;78.40;;;;;;5071019;28;20077;-70
2022/08/15 11:53:21;;;;;;;3.70;2.67;;;30.40;78.70;;;;;;5070362;28;20125;-71
2022/08/15 11:55:49;;;;;;;4.05;2.15;;;30.30;78.90;;;;;;5102486;28;20064;-72
2022/08/15 11:58:20;;;;;;;5.38;2.97;;;30.40;79.30;;;;;;5085254;28;20449;-71
2022/08/15 12:00:48;;;;;;;4.50;2.60;;;30.40;79.40;;;;;;5071563;28;20466;-71
2022/08/15 12:03:16;;;;;;;3.40;2.80;;;30.40;79.80;;;;;;5070143;28;20141;-72
2022/08/15 12:06:19;;;;;;;3.97;2.88;;;30.40;81.80;;;;;;5067614;28;20056;-71
2022/08/15 12:08:48;;;;;;;3.67;2.47;;;30.40;81.00;;;;;;5071629;28;20068;-71
2022/08/15 12:11:22;;;;;;;4.03;2.33;;;30.30;80.90;;;;;;5103481;28;20846;-72
2022/08/15 12:13:57;;;;;;;4.97;2.97;;;30.30;81.20;;;;;;5104161;28;20387;-71
2022/08/15 12:16:43;;;;;;;5.43;3.05;;;30.40;80.70;;;;;;5103794;28;20041;-71
2022/08/15 12:19:29;;;;;;;;;;;30.40;81.30;;;;;;5070146;28;20045;-71
2022/08/15 12:22:02;;;;;;;3.70;2.60;;;30.50;82.20;;;;;;5070218;28;19920;-70
2022/08/15 12:24:34;;;;;;;4.05;2.72;;;30.50;81.50;;;;;;5070112;28;20059;-71
2022/08/15 12:27:02;;;;;;;4.43;3.15;;;30.50;82.90;;;;;;5053488;28;20063;-72
2022/08/15 12:29:31;;;;;;;3.58;2.67;;;30.20;83.80;;;;;;5086090;28;20080;-71
2022/08/15 12:32:00;;;;;;;3.95;2.60;;;30.10;84.10;;;;;;5071425;28;20398;-70
2022/08/15 12:34:34;;;;;;;5.50;2.70;;;29.90;84.00;;;;;;5069856;28;20920;-71
2022/08/15 12:37:13;;;;;;;3.60;2.97;;;29.90;84.00;;;;;;5069267;28;20072;-70
2022/08/15 12:39:44;;;;;;;4.57;2.67;;;29.90;84.50;;;;;;5069672;28;20056;-72
2022/08/15 12:42:31;;;;;;;3.88;2.70;;;29.80;84.70;;;;;;5069514;28;20084;-72
2022/08/15 12:45:07;;;;;;;4.57;2.65;;;29.70;85.10;;;;;;5086426;28;20355;-71
2022/08/15 12:47:34;;;;;;;4.50;2.90;;;29.50;85.40;;;;;;5103729;28;20064;-72
2022/08/15 12:50:04;;;;;;;3.58;2.53;;;29.40;85.70;;;;;;5103208;28;20086;-71
2022/08/15 12:52:32;;;;;;;3.55;2.40;;;29.50;85.80;;;;;;5053336;28;20049;-72
2022/08/15 12:55:00;;;;;;;3.83;2.90;;;29.40;85.50;;;;;;5068627;28;20450;-71
2022/08/15 12:57:29;;;;;;;3.95;2.45;;;29.30;85.10;;;;;;5070562;28;20391;-71
2022/08/15 12:59:56;;;;;;;4.13;2.75;;;29.30;85.50;;;;;;5070657;28;20532;-72
2022/08/15 13:02:24;;;;;;;4.20;2.38;;;29.40;85.30;;;;;;5102743;28;20045;-72
2022/08/15 13:04:56;;;;;;;4.00;2.50;;;29.50;86.00;;;;;;5069273;28;20044;-71
2022/08/15 13:07:25;;;;;;;3.65;2.60;;;29.50;85.80;;;;;;5086238;28;20080;-71
2022/08/15 13:09:53;;;;;;;4.35;2.88;;;29.50;85.50;;;;;;5085943;28;20140;-72
2022/08/15 13:12:20;;;;;;;4.38;3.03;;;29.50;85.70;;;;;;5070456;28;20467;-71
2022/08/15 13:14:48;;;;;;;4.53;3.15;;;29.50;86.10;;;;;;5102779;28;20037;-71
2022/08/15 13:17:16;;;;;;;3.40;2.40;;;29.50;86.00;;;;;;5102471;28;20477;-71
2022/08/15 13:25:22;;;;;;;4.38;2.65;;;29.40;86.40;;;;;;5068676;28;20036;-71
2022/08/15 13:27:50;;;;;;;4.97;2.75;;;29.40;86.70;;;;;;5068499;28;20182;-72
2022/08/15 13:30:20;;;;;;;4.10;2.85;;;29.40;86.40;;;;;;5069831;28;20032;-70
2022/08/15 13:32:49;;;;;;;3.75;2.70;;;29.40;86.60;;;;;;5066195;28;20053;-71
2022/08/15 13:35:19;;;;;;;3.65;2.80;;;29.50;87.40;;;;;;5064973;28;20041;-71
2022/08/15 13:37:47;;;;;;;4.20;3.05;;;29.60;87.60;;;;;;5081710;28;20390;-71
2022/08/15 13:40:19;;;;;;;3.97;3.15;;;29.70;87.50;;;;;;5048544;28;20091;-71
2022/08/15 13:42:47;;;;;;;3.72;2.83;;;29.70;86.80;;;;;;5081631;28;20036;-71
2022/08/15 13:45:18;;;;;;;4.95;3.03;;;29.70;86.40;;;;;;5049596;28;20369;-71
2022/08/15 13:47:49;;;;;;;3.35;2.70;;;29.70;87.80;;;;;;5064766;28;20055;-71